Geneva, Nebraska
Current Conditions -  °F | °C
As of 8:35 AM on Friday 31 Oct 2014 (Local Time) from KJYR Reporting Station
Clear Clear  
Wind Chill: 15°   Ceiling: Unl
Heat Index: 25°   Visibility: 10mi
Dew Point: 19°   Wind: 9mph
Humidity: 80%   Direction: 10°N
Pressure: 30.55"   Gusts: NA
Location:  40.53°N, 97.6°W
Report Text: KJYR 311335Z AUTO 01008KT 10SM CLR M04/M07 A3055 RMK AO2
Loading
Personal Weather Stations






























Interactive Weather Map
Tropical Storm Tracking
New forecast layout! Learn more

10-Day Weather Forecast

Advertisements
Track Severe Weather on mobile